sensor_id;sensor_type;location;lat;lon;timestamp;pressure;altitude;pressure_sealevel;temperature;humidity
64192;BME280;50497;50.720;-2.084;2023-09-30T00:00:14;103303.94;;;11.52;100.00
64192;BME280;50497;50.720;-2.084;2023-09-30T00:02:39;103317.34;;;11.52;100.00
64192;BME280;50497;50.720;-2.084;2023-09-30T00:05:05;103326.25;;;11.54;100.00
64192;BME280;50497;50.720;-2.084;2023-09-30T00:07:30;103337.88;;;11.53;100.00
64192;BME280;50497;50.720;-2.084;2023-09-30T00:09:55;103346.78;;;11.55;100.00
64192;BME280;50497;50.720;-2.084;2023-09-30T00:12:21;103366.47;;;11.56;100.00
64192;BME280;50497;50.720;-2.084;2023-09-30T00:14:47;103382.53;;;11.56;100.00
64192;BME280;50497;50.720;-2.084;2023-09-30T00:17:13;103378.06;;;11.58;100.00
64192;BME280;50497;50.720;-2.084;2023-09-30T00:19:38;103398.63;;;11.57;100.00
64192;BME280;50497;50.720;-2.084;2023-09-30T00:22:04;103423.66;;;11.56;100.00
64192;BME280;50497;50.720;-2.084;2023-09-30T00:24:29;103445.09;;;11.55;100.00
64192;BME280;50497;50.720;-2.084;2023-09-30T00:26:54;103462.13;;;11.51;100.00
64192;BME280;50497;50.720;-2.084;2023-09-30T00:29:21;103457.69;;;11.48;100.00
64192;BME280;50497;50.720;-2.084;2023-09-30T00:31:46;103464.88;;;11.43;100.00
64192;BME280;50497;50.720;-2.084;2023-09-30T00:34:12;103473.84;;;11.39;100.00
64192;BME280;50497;50.720;-2.084;2023-09-30T00:36:38;103470.31;;;11.31;100.00
64192;BME280;50497;50.720;-2.084;2023-09-30T00:39:03;103488.19;;;11.25;100.00
64192;BME280;50497;50.720;-2.084;2023-09-30T00:41:29;103496.25;;;11.25;100.00
64192;BME280;50497;50.720;-2.084;2023-09-30T00:43:54;103499.88;;;11.15;100.00
64192;BME280;50497;50.720;-2.084;2023-09-30T00:46:29;103510.66;;;11.06;100.00
64192;BME280;50497;50.720;-2.084;2023-09-30T00:48:56;103507.13;;;10.98;100.00
64192;BME280;50497;50.720;-2.084;2023-09-30T00:51:22;103517.00;;;10.83;100.00
64192;BME280;50497;50.720;-2.084;2023-09-30T00:53:49;103522.41;;;10.74;100.00
64192;BME280;50497;50.720;-2.084;2023-09-30T00:56:14;103525.97;;;10.67;100.00
64192;BME280;50497;50.720;-2.084;2023-09-30T00:58:40;103529.59;;;10.57;100.00
64192;BME280;50497;50.720;-2.084;2023-09-30T01:01:06;103528.72;;;10.50;100.00
64192;BME280;50497;50.720;-2.084;2023-09-30T01:03:31;103513.56;;;10.44;100.00
64192;BME280;50497;50.720;-2.084;2023-09-30T01:05:57;103528.72;;;10.42;100.00
64192;BME280;50497;50.720;-2.084;2023-09-30T01:08:22;103543.03;;;10.41;100.00
64192;BME280;50497;50.720;-2.084;2023-09-30T01:10:47;103541.22;;;10.35;100.00
64192;BME280;50497;50.720;-2.084;2023-09-30T01:13:13;103548.38;;;10.33;100.00
64192;BME280;50497;50.720;-2.084;2023-09-30T01:15:38;103548.34;;;10.30;100.00
64192;BME280;50497;50.720;-2.084;2023-09-30T01:18:04;103537.63;;;10.26;100.00
64192;BME280;50497;50.720;-2.084;2023-09-30T01:20:29;103543.91;;;10.23;100.00
64192;BME280;50497;50.720;-2.084;2023-09-30T01:22:56;103534.97;;;10.18;100.00
64192;BME280;50497;50.720;-2.084;2023-09-30T01:25:22;103527.84;;;10.20;100.00
64192;BME280;50497;50.720;-2.084;2023-09-30T01:27:47;103526.03;;;10.24;100.00
64192;BME280;50497;50.720;-2.084;2023-09-30T01:30:12;103523.38;;;10.21;100.00
64192;BME280;50497;50.720;-2.084;2023-09-30T01:32:38;103518.03;;;10.19;100.00
64192;BME280;50497;50.720;-2.084;2023-09-30T01:35:04;103541.22;;;10.26;100.00
64192;BME280;50497;50.720;-2.084;2023-09-30T01:37:29;103546.56;;;10.26;100.00
64192;BME280;50497;50.720;-2.084;2023-09-30T01:39:54;103549.25;;;10.26;100.00
64192;BME280;50497;50.720;-2.084;2023-09-30T01:42:20;103543.91;;;10.25;100.00
64192;BME280;50497;50.720;-2.084;2023-09-30T01:44:45;103559.06;;;10.20;100.00
64192;BME280;50497;50.720;-2.084;2023-09-30T01:47:10;103565.28;;;10.17;100.00
64192;BME280;50497;50.720;-2.084;2023-09-30T01:49:36;103575.13;;;10.18;100.00
64192;BME280;50497;50.720;-2.084;2023-09-30T01:52:02;103584.94;;;10.14;100.00
64192;BME280;50497;50.720;-2.084;2023-09-30T01:54:27;103594.72;;;10.15;100.00
64192;BME280;50497;50.720;-2.084;2023-09-30T01:56:52;103603.63;;;10.19;100.00
64192;BME280;50497;50.720;-2.084;2023-09-30T01:59:18;103606.31;;;10.21;100.00
64192;BME280;50497;50.720;-2.084;2023-09-30T02:01:43;103620.59;;;10.20;100.00
64192;BME280;50497;50.720;-2.084;2023-09-30T02:04:08;103621.50;;;10.20;100.00
64192;BME280;50497;50.720;-2.084;2023-09-30T02:06:33;103621.47;;;10.18;100.00
64192;BME280;50497;50.720;-2.084;2023-09-30T02:08:59;103622.38;;;10.17;100.00
64192;BME280;50497;50.720;-2.084;2023-09-30T02:11:24;103623.28;;;10.16;100.00
64192;BME280;50497;50.720;-2.084;2023-09-30T02:13:50;103632.19;;;10.12;100.00
64192;BME280;50497;50.720;-2.084;2023-09-30T02:16:15;103631.28;;;10.13;100.00
64192;BME280;50497;50.720;-2.084;2023-09-30T02:18:42;103634.88;;;10.06;100.00
64192;BME280;50497;50.720;-2.084;2023-09-30T02:21:09;103636.63;;;9.96;100.00
64192;BME280;50497;50.720;-2.084;2023-09-30T02:23:35;103640.19;;;9.94;100.00
64192;BME280;50497;50.720;-2.084;2023-09-30T02:26:01;103654.47;;;9.93;100.00
64192;BME280;50497;50.720;-2.084;2023-09-30T02:28:27;103666.91;;;9.92;100.00
64192;BME280;50497;50.720;-2.084;2023-09-30T02:30:52;103690.06;;;9.86;100.00
64192;BME280;50497;50.720;-2.084;2023-09-30T02:33:18;103684.75;;;9.89;100.00
64192;BME280;50497;50.720;-2.084;2023-09-30T02:35:44;103690.97;;;9.83;100.00
64192;BME280;50497;50.720;-2.084;2023-09-30T02:38:10;103684.75;;;9.92;100.00
64192;BME280;50497;50.720;-2.084;2023-09-30T02:40:36;103695.44;;;9.89;100.00
64192;BME280;50497;50.720;-2.084;2023-09-30T02:43:01;103675.78;;;9.74;100.00
64192;BME280;50497;50.720;-2.084;2023-09-30T02:45:26;103699.91;;;9.87;100.00
64192;BME280;50497;50.720;-2.084;2023-09-30T02:47:51;103702.59;;;9.90;100.00
64192;BME280;50497;50.720;-2.084;2023-09-30T02:50:17;103710.63;;;9.93;100.00
64192;BME280;50497;50.720;-2.084;2023-09-30T02:52:42;103707.06;;;9.98;100.00
64192;BME280;50497;50.720;-2.084;2023-09-30T02:55:08;103714.22;;;10.01;100.00
64192;BME280;50497;50.720;-2.084;2023-09-30T02:57:33;103724.00;;;10.01;100.00
64192;BME280;50497;50.720;-2.084;2023-09-30T03:00:01;103719.56;;;10.12;100.00
64192;BME280;50497;50.720;-2.084;2023-09-30T03:02:29;103703.53;;;10.15;100.00
64192;BME280;50497;50.720;-2.084;2023-09-30T03:04:54;103710.66;;;10.17;100.00
64192;BME280;50497;50.720;-2.084;2023-09-30T03:07:20;103697.31;;;10.14;100.00
64192;BME280;50497;50.720;-2.084;2023-09-30T03:09:45;103693.72;;;10.20;100.00
64192;BME280;50497;50.720;-2.084;2023-09-30T03:12:11;103676.81;;;10.23;100.00
64192;BME280;50497;50.720;-2.084;2023-09-30T03:14:37;103671.44;;;10.26;100.00
64192;BME280;50497;50.720;-2.084;2023-09-30T03:17:02;103666.06;;;10.29;100.00
64192;BME280;50497;50.720;-2.084;2023-09-30T03:19:28;103657.19;;;10.31;100.00
64192;BME280;50497;50.720;-2.084;2023-09-30T03:21:54;103667.00;;;10.34;100.00
64192;BME280;50497;50.720;-2.084;2023-09-30T03:24:19;103661.66;;;10.40;100.00
64192;BME280;50497;50.720;-2.084;2023-09-30T03:26:46;103649.16;;;10.42;100.00
64192;BME280;50497;50.720;-2.084;2023-09-30T03:29:11;103640.25;;;10.40;100.00
64192;BME280;50497;50.720;-2.084;2023-09-30T03:31:37;103646.50;;;10.45;100.00
64192;BME280;50497;50.720;-2.084;2023-09-30T03:34:02;103634.91;;;10.46;100.00
64192;BME280;50497;50.720;-2.084;2023-09-30T03:36:29;103633.13;;;10.59;100.00
64192;BME280;50497;50.720;-2.084;2023-09-30T03:38:55;103631.31;;;10.63;100.00
64192;BME280;50497;50.720;-2.084;2023-09-30T03:41:20;103631.31;;;10.61;100.00
64192;BME280;50497;50.720;-2.084;2023-09-30T03:43:45;103620.63;;;10.60;100.00
64192;BME280;50497;50.720;-2.084;2023-09-30T03:46:11;103615.25;;;10.61;100.00
64192;BME280;50497;50.720;-2.084;2023-09-30T03:48:37;103610.78;;;10.60;100.00
64192;BME280;50497;50.720;-2.084;2023-09-30T03:51:10;103600.06;;;10.59;100.00
64192;BME280;50497;50.720;-2.084;2023-09-30T03:53:45;103588.50;;;10.61;100.00
64192;BME280;50497;50.720;-2.084;2023-09-30T03:56:11;103571.53;;;10.59;100.00
64192;BME280;50497;50.720;-2.084;2023-09-30T03:58:37;103578.66;;;10.60;100.00
64192;BME280;50497;50.720;-2.084;2023-09-30T04:01:03;103569.75;;;10.66;100.00
64192;BME280;50497;50.720;-2.084;2023-09-30T04:03:29;103552.81;;;10.56;100.00
64192;BME280;50497;50.720;-2.084;2023-09-30T04:05:54;103559.03;;;10.64;100.00
64192;BME280;50497;50.720;-2.084;2023-09-30T04:08:19;103552.78;;;10.61;100.00
64192;BME280;50497;50.720;-2.084;2023-09-30T04:10:47;103534.94;;;10.58;100.00
64192;BME280;50497;50.720;-2.084;2023-09-30T04:13:12;103531.34;;;10.61;100.00
64192;BME280;50497;50.720;-2.084;2023-09-30T04:15:37;103517.97;;;10.64;100.00
64192;BME280;50497;50.720;-2.084;2023-09-30T04:18:03;103520.69;;;10.58;100.00
64192;BME280;50497;50.720;-2.084;2023-09-30T04:20:33;103513.53;;;10.57;100.00
64192;BME280;50497;50.720;-2.084;2023-09-30T04:22:58;103518.00;;;10.50;100.00
64192;BME280;50497;50.720;-2.084;2023-09-30T04:25:24;103525.13;;;10.56;100.00
64192;BME280;50497;50.720;-2.084;2023-09-30T04:27:52;103539.38;;;10.62;100.00
64192;BME280;50497;50.720;-2.084;2023-09-30T04:30:18;103538.53;;;10.46;100.00
64192;BME280;50497;50.720;-2.084;2023-09-30T04:32:44;103550.13;;;10.51;100.00
64192;BME280;50497;50.720;-2.084;2023-09-30T04:35:09;103542.97;;;10.49;100.00
64192;BME280;50497;50.720;-2.084;2023-09-30T04:37:34;103552.81;;;10.47;100.00
64192;BME280;50497;50.720;-2.084;2023-09-30T04:40:01;103551.03;;;10.44;100.00
64192;BME280;50497;50.720;-2.084;2023-09-30T04:42:27;103538.56;;;10.37;100.00
64192;BME280;50497;50.720;-2.084;2023-09-30T04:44:52;103508.22;;;10.33;100.00
64192;BME280;50497;50.720;-2.084;2023-09-30T04:47:18;103501.09;;;10.26;100.00
64192;BME280;50497;50.720;-2.084;2023-09-30T04:49:47;103490.38;;;10.22;100.00
64192;BME280;50497;50.720;-2.084;2023-09-30T04:52:12;103481.47;;;10.20;100.00
64192;BME280;50497;50.720;-2.084;2023-09-30T04:54:37;103484.16;;;10.21;100.00
64192;BME280;50497;50.720;-2.084;2023-09-30T04:57:02;103478.81;;;10.18;100.00
64192;BME280;50497;50.720;-2.084;2023-09-30T04:59:28;103472.53;;;10.17;100.00
64192;BME280;50497;50.720;-2.084;2023-09-30T05:01:54;103474.34;;;10.15;100.00
64192;BME280;50497;50.720;-2.084;2023-09-30T05:04:20;103478.81;;;10.15;100.00
64192;BME280;50497;50.720;-2.084;2023-09-30T05:06:45;103483.25;;;10.19;100.00
64192;BME280;50497;50.720;-2.084;2023-09-30T05:09:10;103487.72;;;10.14;100.00
64192;BME280;50497;50.720;-2.084;2023-09-30T05:11:37;103485.03;;;10.11;100.00
64192;BME280;50497;50.720;-2.084;2023-09-30T05:14:02;103483.28;;;10.11;100.00
64192;BME280;50497;50.720;-2.084;2023-09-30T05:16:30;103486.81;;;10.10;100.00
64192;BME280;50497;50.720;-2.084;2023-09-30T05:18:55;103484.16;;;10.10;100.00
64192;BME280;50497;50.720;-2.084;2023-09-30T05:21:20;103504.66;;;10.11;100.00
64192;BME280;50497;50.720;-2.084;2023-09-30T05:23:46;103502.88;;;10.04;100.00
64192;BME280;50497;50.720;-2.084;2023-09-30T05:26:11;103501.09;;;9.94;100.00
64192;BME280;50497;50.720;-2.084;2023-09-30T05:28:36;103494.88;;;9.87;100.00
64192;BME280;50497;50.720;-2.084;2023-09-30T05:31:04;103492.22;;;9.79;100.00
64192;BME280;50497;50.720;-2.084;2023-09-30T05:33:29;103500.25;;;9.78;100.00
64192;BME280;50497;50.720;-2.084;2023-09-30T05:35:55;103510.91;;;9.69;100.00
64192;BME280;50497;50.720;-2.084;2023-09-30T05:38:20;103514.50;;;9.65;100.00
64192;BME280;50497;50.720;-2.084;2023-09-30T05:40:48;103520.69;;;9.56;100.00
64192;BME280;50497;50.720;-2.084;2023-09-30T05:43:14;103518.91;;;9.49;100.00
64192;BME280;50497;50.720;-2.084;2023-09-30T05:45:39;103518.00;;;9.45;100.00
64192;BME280;50497;50.720;-2.084;2023-09-30T05:48:14;103523.34;;;9.42;100.00
64192;BME280;50497;50.720;-2.084;2023-09-30T05:50:39;103539.38;;;9.40;100.00
64192;BME280;50497;50.720;-2.084;2023-09-30T05:53:04;103555.41;;;9.37;100.00
64192;BME280;50497;50.720;-2.084;2023-09-30T05:55:29;103583.00;;;9.33;100.00
64192;BME280;50497;50.720;-2.084;2023-09-30T05:57:55;103611.47;;;9.31;100.00
64192;BME280;50497;50.720;-2.084;2023-09-30T06:00:21;103630.19;;;9.27;100.00
64192;BME280;50497;50.720;-2.084;2023-09-30T06:02:56;103635.53;;;9.25;100.00
64192;BME280;50497;50.720;-2.084;2023-09-30T06:05:21;103647.06;;;9.21;100.00
64192;BME280;50497;50.720;-2.084;2023-09-30T06:07:51;103674.53;;;9.01;100.00
64192;BME280;50497;50.720;-2.084;2023-09-30T06:10:17;103681.75;;;9.12;100.00
64192;BME280;50497;50.720;-2.084;2023-09-30T06:12:46;103691.53;;;9.08;100.00
64192;BME280;50497;50.720;-2.084;2023-09-30T06:15:12;103710.22;;;9.05;100.00
64192;BME280;50497;50.720;-2.084;2023-09-30T06:17:38;103718.22;;;9.03;100.00
64192;BME280;50497;50.720;-2.084;2023-09-30T06:20:04;103745.78;;;9.02;100.00
64192;BME280;50497;50.720;-2.084;2023-09-30T06:22:33;103773.34;;;9.01;100.00
64192;BME280;50497;50.720;-2.084;2023-09-30T06:24:58;103785.81;;;9.01;100.00
64192;BME280;50497;50.720;-2.084;2023-09-30T06:27:24;103809.00;;;9.02;100.00
64192;BME280;50497;50.720;-2.084;2023-09-30T06:29:49;103837.47;;;9.01;100.00
64192;BME280;50497;50.720;-2.084;2023-09-30T06:32:14;103845.47;;;9.01;100.00
64192;BME280;50497;50.720;-2.084;2023-09-30T06:34:40;103877.59;;;9.09;100.00
64192;BME280;50497;50.720;-2.084;2023-09-30T06:37:05;103898.06;;;9.05;100.00
64192;BME280;50497;50.720;-2.084;2023-09-30T06:39:31;103924.84;;;9.12;100.00
64192;BME280;50497;50.720;-2.084;2023-09-30T06:41:59;103938.25;;;9.19;100.00
64192;BME280;50497;50.720;-2.084;2023-09-30T06:44:24;103949.84;;;9.23;100.00
64192;BME280;50497;50.720;-2.084;2023-09-30T06:46:50;103952.53;;;9.21;100.00
64192;BME280;50497;50.720;-2.084;2023-09-30T06:49:15;103974.88;;;9.30;100.00
64192;BME280;50497;50.720;-2.084;2023-09-30T06:51:41;103997.22;;;9.39;100.00
64192;BME280;50497;50.720;-2.084;2023-09-30T06:54:06;104007.06;;;9.43;100.00
64192;BME280;50497;50.720;-2.084;2023-09-30T06:56:31;104008.94;;;9.52;100.00
64192;BME280;50497;50.720;-2.084;2023-09-30T06:58:56;103998.25;;;9.54;100.00
64192;BME280;50497;50.720;-2.084;2023-09-30T07:01:22;104035.78;;;9.63;100.00
64192;BME280;50497;50.720;-2.084;2023-09-30T07:03:48;104061.78;;;9.79;100.00
64192;BME280;50497;50.720;-2.084;2023-09-30T07:06:21;104075.13;;;9.81;100.00
64192;BME280;50497;50.720;-2.084;2023-09-30T07:08:46;104115.44;;;10.03;100.00
64192;BME280;50497;50.720;-2.084;2023-09-30T07:11:11;104119.97;;;10.08;100.00
64192;BME280;50497;50.720;-2.084;2023-09-30T07:13:36;104128.91;;;10.09;100.00
64192;BME280;50497;50.720;-2.084;2023-09-30T07:16:02;104162.16;;;10.34;100.00
64192;BME280;50497;50.720;-2.084;2023-09-30T07:18:27;104181.06;;;10.56;100.00
64192;BME280;50497;50.720;-2.084;2023-09-30T07:20:54;104186.59;;;10.74;100.00
64192;BME280;50497;50.720;-2.084;2023-09-30T07:23:19;104187.56;;;10.90;100.00
64192;BME280;50497;50.720;-2.084;2023-09-30T07:25:44;104197.56;;;11.23;100.00
64192;BME280;50497;50.720;-2.084;2023-09-30T07:28:10;104197.72;;;11.51;100.00
64192;BME280;50497;50.720;-2.084;2023-09-30T07:30:36;104181.69;;;11.68;100.00
64192;BME280;50497;50.720;-2.084;2023-09-30T07:33:02;104143.25;;;11.77;100.00
64192;BME280;50497;50.720;-2.084;2023-09-30T07:35:28;104091.47;;;12.09;100.00
64192;BME280;50497;50.720;-2.084;2023-09-30T07:37:53;104054.69;;;12.42;100.00
64192;BME280;50497;50.720;-2.084;2023-09-30T07:40:18;103997.34;;;12.61;100.00
64192;BME280;50497;50.720;-2.084;2023-09-30T07:42:44;103915.78;;;12.79;100.00
64192;BME280;50497;50.720;-2.084;2023-09-30T07:45:09;103885.22;;;12.92;100.00
64192;BME280;50497;50.720;-2.084;2023-09-30T07:47:35;103844.84;;;13.03;100.00
64192;BME280;50497;50.720;-2.084;2023-09-30T07:50:01;103782.13;;;13.04;100.00
64192;BME280;50497;50.720;-2.084;2023-09-30T07:52:38;103711.19;;;13.16;100.00
64192;BME280;50497;50.720;-2.084;2023-09-30T07:55:04;103637.91;;;13.03;100.00
64192;BME280;50497;50.720;-2.084;2023-09-30T07:57:30;103571.59;;;13.04;100.00
64192;BME280;50497;50.720;-2.084;2023-09-30T07:59:55;103509.53;;;13.21;100.00
64192;BME280;50497;50.720;-2.084;2023-09-30T08:02:20;103502.44;;;13.15;100.00
64192;BME280;50497;50.720;-2.084;2023-09-30T08:04:46;103470.28;;;13.09;100.00
64192;BME280;50497;50.720;-2.084;2023-09-30T08:07:12;103431.81;;;13.05;100.00
64192;BME280;50497;50.720;-2.084;2023-09-30T08:09:38;103401.28;;;13.08;100.00
64192;BME280;50497;50.720;-2.084;2023-09-30T08:12:04;103368.09;;;13.10;100.00
64192;BME280;50497;50.720;-2.084;2023-09-30T08:14:29;103327.84;;;13.07;100.00
64192;BME280;50497;50.720;-2.084;2023-09-30T08:16:54;103290.91;;;13.19;100.00
64192;BME280;50497;50.720;-2.084;2023-09-30T08:19:20;103255.97;;;13.19;100.00
64192;BME280;50497;50.720;-2.084;2023-09-30T08:21:46;103247.81;;;13.25;100.00
64192;BME280;50497;50.720;-2.084;2023-09-30T08:24:11;103246.28;;;13.58;100.00
64192;BME280;50497;50.720;-2.084;2023-09-30T08:26:36;103231.94;;;13.58;100.00
64192;BME280;50497;50.720;-2.084;2023-09-30T08:29:02;103225.97;;;13.87;100.00
64192;BME280;50497;50.720;-2.084;2023-09-30T08:31:27;103216.56;;;14.07;100.00
64192;BME280;50497;50.720;-2.084;2023-09-30T08:33:53;103209.53;;;14.38;100.00
64192;BME280;50497;50.720;-2.084;2023-09-30T08:36:18;103205.78;;;14.44;100.00
64192;BME280;50497;50.720;-2.084;2023-09-30T08:38:43;103214.66;;;14.49;100.00
64192;BME280;50497;50.720;-2.084;2023-09-30T08:41:09;103195.53;;;14.62;100.00
64192;BME280;50497;50.720;-2.084;2023-09-30T08:43:36;103191.56;;;14.76;100.00
64192;BME280;50497;50.720;-2.084;2023-09-30T08:46:02;103182.00;;;14.65;100.00
64192;BME280;50497;50.720;-2.084;2023-09-30T08:48:27;103180.06;;;14.70;100.00
64192;BME280;50497;50.720;-2.084;2023-09-30T08:50:53;103166.84;;;14.93;100.00
64192;BME280;50497;50.720;-2.084;2023-09-30T08:53:22;103162.75;;;15.13;100.00
64192;BME280;50497;50.720;-2.084;2023-09-30T08:55:48;103143.59;;;15.22;100.00
64192;BME280;50497;50.720;-2.084;2023-09-30T08:58:14;103140.00;;;15.53;100.00
64192;BME280;50497;50.720;-2.084;2023-09-30T09:00:42;103131.25;;;15.75;100.00
64192;BME280;50497;50.720;-2.084;2023-09-30T09:03:07;103127.41;;;16.12;100.00
64192;BME280;50497;50.720;-2.084;2023-09-30T09:05:33;103117.22;;;16.47;100.00
64192;BME280;50497;50.720;-2.084;2023-09-30T09:07:58;103093.81;;;16.72;100.00
64192;BME280;50497;50.720;-2.084;2023-09-30T09:10:24;103081.56;;;17.12;100.00
64192;BME280;50497;50.720;-2.084;2023-09-30T09:12:54;103056.41;;;17.34;100.00
64192;BME280;50497;50.720;-2.084;2023-09-30T09:15:21;103041.88;;;16.89;100.00
64192;BME280;50497;50.720;-2.084;2023-09-30T09:17:46;103025.25;;;18.12;100.00
64192;BME280;50497;50.720;-2.084;2023-09-30T09:20:16;103004.69;;;18.08;100.00
64192;BME280;50497;50.720;-2.084;2023-09-30T09:22:44;102991.47;;;18.21;100.00
64192;BME280;50497;50.720;-2.084;2023-09-30T09:25:10;102985.66;;;18.90;100.00
64192;BME280;50497;50.720;-2.084;2023-09-30T09:27:36;102964.22;;;19.41;100.00
64192;BME280;50497;50.720;-2.084;2023-09-30T09:30:18;102968.00;;;19.56;100.00
64192;BME280;50497;50.720;-2.084;2023-09-30T09:33:00;102969.34;;;19.84;100.00
64192;BME280;50497;50.720;-2.084;2023-09-30T09:35:25;102991.72;;;19.52;100.00
64192;BME280;50497;50.720;-2.084;2023-09-30T09:37:57;103007.59;;;18.03;100.00
64192;BME280;50497;50.720;-2.084;2023-09-30T09:40:23;102996.66;;;18.67;100.00
64192;BME280;50497;50.720;-2.084;2023-09-30T09:42:49;102999.00;;;19.14;100.00
64192;BME280;50497;50.720;-2.084;2023-09-30T09:45:15;102990.88;;;18.95;100.00
64192;BME280;50497;50.720;-2.084;2023-09-30T09:47:42;102992.19;;;18.65;100.00
64192;BME280;50497;50.720;-2.084;2023-09-30T09:50:07;102993.03;;;18.26;100.00
64192;BME280;50497;50.720;-2.084;2023-09-30T09:52:34;102964.03;;;18.28;100.00
64192;BME280;50497;50.720;-2.084;2023-09-30T09:54:59;102965.25;;;18.42;100.00
64192;BME280;50497;50.720;-2.084;2023-09-30T09:57:26;102973.91;;;18.09;100.00
64192;BME280;50497;50.720;-2.084;2023-09-30T09:59:52;102970.69;;;18.21;100.00
64192;BME280;50497;50.720;-2.084;2023-09-30T10:02:19;102970.13;;;18.34;100.00
64192;BME280;50497;50.720;-2.084;2023-09-30T10:04:45;102974.97;;;18.67;100.00
64192;BME280;50497;50.720;-2.084;2023-09-30T10:07:12;102977.03;;;19.01;100.00
64192;BME280;50497;50.720;-2.084;2023-09-30T10:09:39;102967.31;;;18.95;100.00
64192;BME280;50497;50.720;-2.084;2023-09-30T10:12:06;102973.22;;;18.24;100.00
64192;BME280;50497;50.720;-2.084;2023-09-30T10:14:33;102952.94;;;18.35;100.00
64192;BME280;50497;50.720;-2.084;2023-09-30T10:17:00;102952.94;;;18.35;100.00
64192;BME280;50497;50.720;-2.084;2023-09-30T10:19:26;102956.56;;;18.34;100.00
64192;BME280;50497;50.720;-2.084;2023-09-30T10:24:36;102947.00;;;18.45;100.00
64192;BME280;50497;50.720;-2.084;2023-09-30T10:27:27;102948.56;;;18.51;100.00
64192;BME280;50497;50.720;-2.084;2023-09-30T10:29:56;102960.75;;;18.41;100.00
64192;BME280;50497;50.720;-2.084;2023-09-30T10:32:22;102950.53;;;18.87;100.00
64192;BME280;50497;50.720;-2.084;2023-09-30T10:34:48;102954.00;;;18.10;100.00
64192;BME280;50497;50.720;-2.084;2023-09-30T10:37:23;102947.97;;;18.24;100.00
64192;BME280;50497;50.720;-2.084;2023-09-30T10:39:53;102951.19;;;18.13;100.00
64192;BME280;50497;50.720;-2.084;2023-09-30T10:45:04;102954.25;;;17.83;100.00
64192;BME280;50497;50.720;-2.084;2023-09-30T10:49:58;102950.50;;;18.08;100.00
64192;BME280;50497;50.720;-2.084;2023-09-30T10:52:23;102953.06;;;18.11;100.00
64192;BME280;50497;50.720;-2.084;2023-09-30T10:54:49;102950.09;;;18.38;100.00
64192;BME280;50497;50.720;-2.084;2023-09-30T10:57:25;102945.53;;;18.18;100.00
64192;BME280;50497;50.720;-2.084;2023-09-30T11:00:06;102945.78;;;17.91;100.00
64192;BME280;50497;50.720;-2.084;2023-09-30T11:02:31;102937.91;;;18.07;100.00
64192;BME280;50497;50.720;-2.084;2023-09-30T11:04:57;102939.44;;;18.13;100.00
64192;BME280;50497;50.720;-2.084;2023-09-30T11:07:22;102931.91;;;18.98;100.00
64192;BME280;50497;50.720;-2.084;2023-09-30T11:09:53;102928.66;;;19.65;100.00
64192;BME280;50497;50.720;-2.084;2023-09-30T11:12:18;102936.88;;;18.70;100.00
64192;BME280;50497;50.720;-2.084;2023-09-30T11:14:43;102937.16;;;18.82;100.00
64192;BME280;50497;50.720;-2.084;2023-09-30T11:17:09;102939.31;;;19.50;100.00
64192;BME280;50497;50.720;-2.084;2023-09-30T11:19:35;102934.88;;;19.67;100.00
64192;BME280;50497;50.720;-2.084;2023-09-30T11:22:02;102929.66;;;20.67;100.00
64192;BME280;50497;50.720;-2.084;2023-09-30T11:24:27;102949.13;;;20.75;100.00
64192;BME280;50497;50.720;-2.084;2023-09-30T11:26:54;102963.91;;;20.87;100.00
64192;BME280;50497;50.720;-2.084;2023-09-30T11:29:23;102966.78;;;21.00;100.00
64192;BME280;50497;50.720;-2.084;2023-09-30T11:31:50;102999.78;;;19.90;100.00
64192;BME280;50497;50.720;-2.084;2023-09-30T11:34:16;102997.38;;;19.48;100.00
64192;BME280;50497;50.720;-2.084;2023-09-30T11:36:48;102991.47;;;19.57;100.00
64192;BME280;50497;50.720;-2.084;2023-09-30T11:39:27;102992.25;;;19.42;100.00
64192;BME280;50497;50.720;-2.084;2023-09-30T11:41:53;102986.59;;;20.00;100.00
64192;BME280;50497;50.720;-2.084;2023-09-30T11:44:20;102972.53;;;19.92;100.00
64192;BME280;50497;50.720;-2.084;2023-09-30T11:46:52;102973.50;;;20.26;100.00
64192;BME280;50497;50.720;-2.084;2023-09-30T11:51:57;102978.47;;;20.18;100.00
64192;BME280;50497;50.720;-2.084;2023-09-30T11:54:28;102973.66;;;20.05;100.00
64192;BME280;50497;50.720;-2.084;2023-09-30T11:56:53;102986.59;;;20.00;100.00
64192;BME280;50497;50.720;-2.084;2023-09-30T11:59:18;102967.63;;;20.69;100.00
64192;BME280;50497;50.720;-2.084;2023-09-30T12:01:47;102984.59;;;20.74;100.00
64192;BME280;50497;50.720;-2.084;2023-09-30T12:04:14;102986.63;;;19.83;100.00
64192;BME280;50497;50.720;-2.084;2023-09-30T12:06:40;102968.41;;;20.20;100.00
64192;BME280;50497;50.720;-2.084;2023-09-30T12:09:05;102958.50;;;20.70;100.00
64192;BME280;50497;50.720;-2.084;2023-09-30T12:11:32;102957.13;;;20.10;100.00
64192;BME280;50497;50.720;-2.084;2023-09-30T12:13:57;102941.69;;;19.75;100.00
64192;BME280;50497;50.720;-2.084;2023-09-30T12:16:25;102931.03;;;20.74;100.00
64192;BME280;50497;50.720;-2.084;2023-09-30T12:18:50;102930.88;;;21.09;100.00
64192;BME280;50497;50.720;-2.084;2023-09-30T12:21:15;102929.53;;;21.64;100.00
64192;BME280;50497;50.720;-2.084;2023-09-30T12:23:45;102956.41;;;21.70;100.00
64192;BME280;50497;50.720;-2.084;2023-09-30T12:26:11;102940.13;;;22.73;100.00
64192;BME280;50497;50.720;-2.084;2023-09-30T12:28:37;102961.31;;;22.24;100.00
64192;BME280;50497;50.720;-2.084;2023-09-30T12:31:02;102933.13;;;22.54;100.00
64192;BME280;50497;50.720;-2.084;2023-09-30T12:33:28;102904.38;;;21.75;100.00
64192;BME280;50497;50.720;-2.084;2023-09-30T12:35:54;102890.03;;;22.02;100.00
64192;BME280;50497;50.720;-2.084;2023-09-30T12:38:19;102878.88;;;21.76;100.00